Flight Track Log - Related Links

Times and Time Zones

All times are in EDT time to prevent confusion due to time zone crossing. See the EJA941 flight status page for this flight to view local times or setup timezone preferences in your user account.

Time Position Orientation Groundspeed Altitude Reporting Facility
EDT Latitude Longitude Course Direction KTS MPH feet Rate Location/Type
Wed 07:40:18 PM 39.6167 -104.8333 49° Northeast 215 247 8,100  Level Denver TRACON
Wed 07:41:12 PM 39.6500 -104.7833 49° Northeast 233 268 11,100 3,143 Climbing Denver TRACON
Wed 07:41:42 PM 39.6842 -104.7883 354° North 234 269 12,500 1,826 Climbing Denver Center
Wed 07:42:44 PM 39.7569 -104.8053 350° North 267 307 13,900 1,161 Climbing Denver Center
Wed 07:43:46 PM 39.8542 -104.7936 North 323 372 14,900 968 Climbing Denver Center
Wed 07:44:48 PM 39.9550 -104.7936 360° North 357 411 15,900 1,113 Climbing Denver Center
Wed 07:45:50 PM 40.0586 -104.7989 358° North 369 425 17,200 1,113 Climbing Denver Center
Wed 07:46:52 PM 40.1742 -104.8039 358° North 387 445 18,200 1,065 Climbing Denver Center
Wed 07:47:54 PM 40.2656 -104.8069 359° North 387 445 19,400 1,210 Climbing Denver Center
Wed 07:48:56 PM 40.4036 -104.8139 358° North 406 467 20,700 1,258 Climbing Denver Center
Wed 07:49:58 PM 40.5083 -104.8675 339° North 425 489 22,000 1,113 Climbing Denver Center
Wed 07:51:00 PM 40.5869 -104.9467 323° Northwest 426 490 23,000 1,210 Climbing Denver Center
Wed 07:52:02 PM 40.7042 -105.0719 321° Northwest 444 511 24,500 1,355 Climbing Denver Center
Wed 07:53:04 PM 40.7989 -105.1631 324° Northwest 424 488 25,800 1,161 Climbing Denver Center
Wed 07:54:06 PM 40.9094 -105.2786 322° Northwest 449 517 26,900 1,016 Climbing Denver Center
Wed 07:55:08 PM 40.9842 -105.4092 307° West 461 531 27,900 1,065 Climbing Denver Center
Wed 07:56:10 PM 41.0508 -105.5511 302° West 472 543 29,100 1,500 Climbing Denver Center
Wed 07:57:12 PM 41.1300 -105.7192 302° West 479 551 31,000 2,323 Climbing Denver Center
Wed 07:58:14 PM 41.1986 -105.8633 302° West 482 555 33,900 1,935 Climbing Denver Center
Wed 07:59:16 PM 41.2778 -106.0331 302° West 483 556 35,000 532 Climbing Denver Center
Wed 08:00:18 PM 41.3519 -106.1897 302° West 513 590 35,000 823 Level Denver Center
Wed 08:01:20 PM 41.4403 -106.3792 302° West 534 615 36,700 1,824 Climbing Denver Center
Wed 08:02:23 PM 41.5183 -106.5486 302° West 513 590 38,800 1,920 Climbing Denver Center
Wed 08:03:25 PM 41.5858 -106.6972 301° West 495 570 40,700 1,694 Climbing Denver Center
Wed 08:04:27 PM 41.6633 -106.8644 302° West 479 551 42,300 1,113 Climbing Denver Center
Wed 08:05:29 PM 41.7278 -107.0061 301° West 470 541 43,000 339 Climbing Denver Center
Wed 08:06:31 PM 41.7933 -107.1525 301° West 477 549 43,000  Level Denver Center
Wed 08:07:33 PM 41.8717 -107.3269 301° West 490 564 43,000  Level Denver Center
Wed 08:08:35 PM 41.9397 -107.4803 301° West 498 573 43,000  Level Denver Center
Wed 08:09:37 PM 42.0186 -107.6581 301° West 498 573 43,000  Level Denver Center
Wed 08:10:20 PM 42.0647 -107.7622 301° West 506 582 43,000  Level Salt Lake Center
Wed 08:11:22 PM 42.1433 -107.9436 300° West 504 580 43,000  Level Salt Lake Center
Wed 08:12:24 PM 42.2142 -108.1025 301° West 515 593 43,000  Level Salt Lake Center
Wed 08:13:25 PM 42.2936 -108.2869 300° West 512 589 43,000  Level Salt Lake Center
Wed 08:14:27 PM 42.3619 -108.4447 300° West 511 588 43,000  Level Salt Lake Center
Wed 08:15:29 PM 42.4417 -108.6292 300° West 511 588 43,000  Level Salt Lake Center
Wed 08:16:31 PM 42.5092 -108.7883 300° West 511 588 43,000  Level Salt Lake Center
Wed 08:17:32 PM 42.5872 -108.9739 300° West 511 588 43,000  Level Salt Lake Center
Wed 08:18:34 PM 42.6542 -109.1297 300° West 504 580 43,000  Level Salt Lake Center
Wed 08:19:36 PM 42.7308 -109.3133 300° West 502 578 43,000  Level Salt Lake Center
Wed 08:20:38 PM 42.7733 -109.4847 289° West 506 582 43,000  Level Salt Lake Center
Wed 08:21:39 PM 42.8092 -109.6936 283° West 509 586 43,000  Level Salt Lake Center
Wed 08:22:41 PM 42.8394 -109.8767 283° West 510 587 43,000  Level Salt Lake Center
Wed 08:23:43 PM 42.8700 -110.0558 283° West 508 585 43,000  Level Salt Lake Center
Wed 08:24:44 PM 42.9039 -110.2614 283° West 507 583 43,000  Level Salt Lake Center
Wed 08:25:46 PM 42.9342 -110.4383 283° West 504 580 43,000  Level Salt Lake Center
Wed 08:26:48 PM 42.9700 -110.6525 283° West 503 579 43,000  Level Salt Lake Center
Wed 08:27:50 PM 42.9992 -110.8311 283° West 503 579 43,000  Level Salt Lake Center
Wed 08:28:51 PM 43.0289 -111.0122 283° West 508 585 43,000  Level Salt Lake Center
Wed 08:29:53 PM 43.0619 -111.2211 282° West 503 579 43,000  Level Salt Lake Center
Wed 08:30:55 PM 43.0894 -111.4028 282° West 506 582 43,000  Level Salt Lake Center
Wed 08:31:56 PM 43.1231 -111.6131 282° West 507 583 43,000 -341 Level Salt Lake Center
Wed 08:32:58 PM 43.1508 -111.7933 282° West 505 581 42,300 -1,839 Descending Salt Lake Center
Wed 08:34:00 PM 43.1828 -112.0069 282° West 509 586 39,200 -2,758 Descending Salt Lake Center
Wed 08:35:02 PM 43.2100 -112.1897 282° West 512 589 36,600 -2,537 Descending Salt Lake Center
Wed 08:36:03 PM 43.2369 -112.3736 281° West 514 592 34,000 -2,732 Descending Salt Lake Center
Wed 08:37:05 PM 43.2686 -112.5892 281° West 515 593 31,000 -2,758 Descending Salt Lake Center
Wed 08:38:07 PM 43.2958 -112.7767 281° West 522 601 28,300 -2,780 Descending Salt Lake Center
Wed 08:39:08 PM 43.3258 -112.9911 281° West 513 590 25,300 -2,683 Descending Salt Lake Center
Wed 08:40:10 PM 43.3514 -113.1675 281° West 496 571 22,800 -2,371 Descending Salt Lake Center
Wed 08:41:12 PM 43.3719 -113.3317 280° West 467 537 20,400 -2,468 Descending Salt Lake Center
Wed 08:42:14 PM 43.3211 -113.4944 247° West 429 494 17,700 -2,146 Descending Salt Lake Center
Wed 08:43:15 PM 43.2361 -113.5911 220° Southwest 415 478 16,000 -829 Descending Salt Lake Center
Wed 08:44:17 PM 43.1494 -113.6986 222° Southwest 386 444 16,000 -194 Level Salt Lake Center
Wed 08:45:19 PM 43.0636 -113.7978 220° Southwest 407 468 15,600 -878 Descending Salt Lake Center
Wed 08:46:20 PM 42.9622 -113.9217 222° Southwest 432 497 14,200 -1,415 Descending Salt Lake Center
Wed 08:47:22 PM 42.8794 -114.0208 221° Southwest 418 481 12,700 -1,742 Descending Salt Lake Center
Wed 08:48:24 PM 42.7925 -114.1250 221° Southwest 405 466 10,600 -1,415 Descending Salt Lake Center
Wed 08:49:25 PM 42.7197 -114.2094 220° Southwest 344 396 9,800 -787 Descending Salt Lake Center

Login

Don't have an account? Register now (free) for customized features, flight alerts, and more!